createdAt,value
2022-08-07T00:00:25.801Z,14.13
2022-08-07T00:02:53.787Z,15.48
2022-08-07T00:05:23.603Z,15.95
2022-08-07T00:07:58.332Z,16.05
2022-08-07T00:10:31.083Z,14.38
2022-08-07T00:13:09.596Z,17.03
2022-08-07T00:15:46.762Z,16.13
2022-08-07T00:18:24.043Z,15.43
2022-08-07T00:20:54.492Z,14.55
2022-08-07T00:23:22.109Z,13.10
2022-08-07T00:25:52.469Z,12.95
2022-08-07T00:28:33.393Z,12.55
2022-08-07T00:31:12.419Z,12.07
2022-08-07T00:33:41.017Z,13.27
2022-08-07T00:36:08.807Z,15.93
2022-08-07T00:38:38.989Z,17.02
2022-08-07T00:41:09.996Z,16.65
2022-08-07T00:44:01.959Z,13.77
2022-08-07T00:46:30.110Z,12.55
2022-08-07T00:49:02.078Z,11.00
2022-08-07T00:51:58.407Z,9.25
2022-08-07T00:54:19.626Z,9.07
2022-08-07T00:56:49.574Z,7.95
2022-08-07T00:59:20.246Z,9.10
2022-08-07T01:02:00.127Z,8.50
2022-08-07T01:04:30.284Z,8.05
2022-08-07T01:06:59.636Z,8.10
2022-08-07T01:10:04.474Z,7.72
2022-08-07T01:12:29.855Z,8.27
2022-08-07T01:15:00.967Z,9.50
2022-08-07T01:17:30.125Z,9.68
2022-08-07T01:20:05.317Z,11.43
2022-08-07T01:22:34.159Z,10.50
2022-08-07T01:25:20.775Z,10.55
2022-08-07T01:27:51.681Z,9.70
2022-08-07T01:30:19.096Z,10.13
2022-08-07T01:32:46.442Z,9.40
2022-08-07T01:35:17.189Z,10.35
2022-08-07T01:37:44.734Z,8.80
2022-08-07T01:40:15.466Z,9.68
2022-08-07T01:42:57.202Z,14.68
2022-08-07T01:45:36.964Z,16.10
2022-08-07T01:48:18.500Z,15.70
2022-08-07T01:50:58.975Z,13.38
2022-08-07T01:54:12.205Z,14.20
2022-08-07T01:56:32.764Z,14.20
2022-08-07T01:59:19.384Z,14.40
2022-08-07T02:02:01.929Z,17.45
2022-08-07T02:04:55.692Z,14.38
2022-08-07T02:07:35.842Z,11.85
2022-08-07T02:10:05.123Z,11.15
2022-08-07T02:12:37.775Z,11.65
2022-08-07T02:15:06.881Z,11.98
2022-08-07T02:17:36.236Z,12.27
2022-08-07T02:20:09.594Z,10.88
2022-08-07T02:22:44.710Z,11.15
2022-08-07T02:25:18.080Z,10.43
2022-08-07T02:27:52.238Z,11.40
2022-08-07T02:30:20.838Z,11.75
2022-08-07T02:33:03.928Z,11.13
2022-08-07T02:36:30.777Z,11.48
2022-08-07T02:38:35.135Z,10.68
2022-08-07T02:41:06.062Z,10.35
2022-08-07T02:43:38.882Z,10.43
2022-08-07T02:46:11.159Z,10.77
2022-08-07T02:51:14.245Z,10.85
2022-08-07T02:54:01.767Z,10.93
2022-08-07T02:56:31.651Z,9.80
2022-08-07T02:59:02.514Z,10.88
2022-08-07T03:01:35.833Z,10.37
2022-08-07T03:04:12.620Z,9.80
2022-08-07T03:06:44.817Z,8.40
2022-08-07T03:09:13.985Z,9.63
2022-08-07T03:11:52.536Z,8.93
2022-08-07T03:14:29.715Z,9.20
2022-08-07T03:16:57.692Z,8.48
2022-08-07T03:19:29.113Z,10.38
2022-08-07T03:22:06.363Z,11.00
2022-08-07T03:24:34.545Z,9.52
2022-08-07T03:27:08.828Z,12.13
2022-08-07T03:29:50.479Z,11.40
2022-08-07T03:32:26.250Z,10.93
2022-08-07T03:35:01.034Z,10.57
2022-08-07T03:37:53.206Z,11.82
2022-08-07T03:40:22.170Z,11.38
2022-08-07T03:42:51.692Z,11.63
2022-08-07T03:45:30.414Z,11.05
2022-08-07T03:47:59.719Z,12.05
2022-08-07T03:50:29.080Z,12.52
2022-08-07T03:52:59.173Z,13.63
2022-08-07T03:55:52.918Z,12.25
2022-08-07T03:59:05.128Z,13.00
2022-08-07T04:01:11.297Z,12.73
2022-08-07T04:03:53.508Z,12.88
2022-08-07T04:06:37.050Z,11.73
2022-08-07T04:09:06.313Z,12.43
2022-08-07T04:12:24.513Z,11.38
2022-08-07T04:14:37.518Z,12.98
2022-08-07T04:17:20.565Z,12.93
2022-08-07T04:19:54.225Z,11.70
2022-08-07T04:22:28.873Z,11.98
2022-08-07T04:24:58.754Z,12.10
2022-08-07T04:27:28.969Z,12.18
2022-08-07T04:30:04.681Z,12.75
2022-08-07T04:32:37.911Z,12.43
2022-08-07T04:35:11.149Z,11.60
2022-08-07T04:37:52.682Z,11.38
2022-08-07T04:40:30.109Z,10.90
2022-08-07T04:43:01.369Z,11.32
2022-08-07T04:46:00.454Z,10.95
2022-08-07T04:48:57.317Z,10.47
2022-08-07T04:51:34.724Z,11.05
2022-08-07T04:54:32.102Z,10.65
2022-08-07T04:58:12.434Z,10.32
2022-08-07T05:00:53.202Z,10.27
2022-08-07T05:04:07.272Z,10.15
2022-08-07T05:07:19.571Z,9.95
2022-08-07T05:09:59.037Z,8.88
2022-08-07T05:12:38.027Z,8.32
2022-08-07T05:15:27.773Z,8.52
2022-08-07T05:18:00.838Z,8.40
2022-08-07T05:20:38.166Z,8.48
2022-08-07T05:23:31.992Z,8.20
2022-08-07T05:26:12.847Z,9.18
2022-08-07T05:28:48.614Z,8.18
2022-08-07T05:31:23.975Z,8.98
2022-08-07T05:34:05.534Z,9.50
2022-08-07T05:36:35.602Z,9.52
2022-08-07T05:40:05.237Z,8.75
2022-08-07T05:42:00.286Z,8.48
2022-08-07T05:44:31.247Z,8.52
2022-08-07T05:47:01.180Z,9.13
2022-08-07T05:49:40.445Z,8.90
2022-08-07T05:52:11.791Z,9.60
2022-08-07T05:54:53.157Z,9.30
2022-08-07T05:57:30.132Z,8.65
2022-08-07T06:00:02.113Z,9.63
2022-08-07T06:02:32.185Z,8.95
2022-08-07T06:05:15.391Z,9.00
2022-08-07T06:08:29.884Z,8.70
2022-08-07T06:10:31.990Z,8.45
2022-08-07T06:13:02.191Z,8.50
2022-08-07T06:15:39.439Z,8.90
2022-08-07T06:18:14.098Z,8.10
2022-08-07T06:20:50.994Z,8.15
2022-08-07T06:24:38.723Z,7.10
2022-08-07T06:26:20.341Z,7.75
2022-08-07T06:28:54.621Z,8.93
2022-08-07T06:31:24.278Z,7.07
2022-08-07T06:34:09.318Z,7.97
2022-08-07T06:36:36.901Z,7.18
2022-08-07T06:40:16.205Z,6.80
2022-08-07T06:42:03.576Z,6.90
2022-08-07T06:44:36.672Z,8.40
2022-08-07T06:47:11.930Z,7.55
2022-08-07T06:49:51.768Z,7.60
2022-08-07T06:52:35.520Z,7.40
2022-08-07T06:55:31.951Z,6.95
2022-08-07T06:58:12.051Z,6.63
2022-08-07T07:00:42.273Z,5.72
2022-08-07T07:03:13.959Z,6.25
2022-08-07T07:06:02.652Z,5.53
2022-08-07T07:08:33.410Z,4.15
2022-08-07T07:11:14.515Z,5.07
2022-08-07T07:13:58.061Z,5.85
2022-08-07T07:16:33.997Z,6.63
2022-08-07T07:19:54.349Z,7.15
2022-08-07T07:22:04.800Z,6.85
2022-08-07T07:24:56.916Z,5.00
2022-08-07T07:27:35.598Z,9.10
2022-08-07T07:30:32.794Z,8.93
2022-08-07T07:33:13.860Z,5.57
2022-08-07T07:36:04.134Z,10.30
2022-08-07T07:38:36.079Z,4.82
2022-08-07T07:41:09.112Z,6.88
2022-08-07T07:44:13.772Z,6.00
2022-08-07T07:46:36.913Z,4.07
2022-08-07T07:50:34.944Z,14.98
2022-08-07T07:52:07.524Z,15.35
2022-08-07T07:54:37.650Z,10.20
2022-08-07T07:57:09.159Z,14.37
2022-08-07T07:59:52.639Z,14.32
2022-08-07T08:02:34.015Z,7.90
2022-08-07T08:05:05.362Z,8.95
2022-08-07T08:07:59.566Z,9.30
2022-08-07T08:10:37.907Z,5.60
2022-08-07T08:13:10.649Z,5.25
2022-08-07T08:15:58.793Z,5.38
2022-08-07T08:18:37.294Z,13.18
2022-08-07T08:22:00.460Z,15.93
2022-08-07T08:24:45.625Z,4.95
2022-08-07T08:27:16.732Z,10.10
2022-08-07T08:29:54.411Z,7.25
2022-08-07T08:32:38.673Z,5.93
2022-08-07T08:35:09.737Z,7.15
2022-08-07T08:38:01.766Z,5.40
2022-08-07T08:40:34.160Z,5.13
2022-08-07T08:43:42.472Z,4.47
2022-08-07T08:46:39.213Z,3.88
2022-08-07T08:49:17.807Z,4.43
2022-08-07T08:52:12.746Z,3.95
2022-08-07T08:55:07.515Z,3.30
2022-08-07T08:57:52.443Z,4.20
2022-08-07T09:00:22.736Z,4.18
2022-08-07T09:03:08.025Z,4.20
2022-08-07T09:05:52.205Z,3.95
2022-08-07T09:08:47.682Z,3.15
2022-08-07T09:11:56.715Z,3.45
2022-08-07T09:16:23.930Z,3.60
2022-08-07T09:18:11.579Z,3.67
2022-08-07T09:21:00.303Z,3.47
2022-08-07T09:24:32.766Z,3.80
2022-08-07T09:27:11.879Z,4.05
2022-08-07T09:30:06.114Z,3.38
2022-08-07T09:33:05.225Z,5.20
2022-08-07T09:36:14.958Z,4.00
2022-08-07T09:39:11.329Z,5.00
2022-08-07T09:42:23.072Z,4.00
2022-08-07T09:47:55.666Z,4.15
2022-08-07T09:47:59.961Z,4.13
2022-08-07T09:50:44.961Z,4.20
2022-08-07T09:53:15.962Z,4.00
2022-08-07T09:56:04.234Z,3.65
2022-08-07T09:59:14.077Z,3.95
2022-08-07T10:01:55.132Z,4.25
2022-08-07T10:04:38.293Z,3.75
2022-08-07T10:07:31.869Z,3.85
2022-08-07T10:11:17.287Z,4.10
2022-08-07T10:14:01.294Z,3.75
2022-08-07T10:17:03.807Z,3.78
2022-08-07T10:20:31.847Z,3.35
2022-08-07T10:24:06.443Z,3.53
2022-08-07T10:26:53.110Z,3.60
2022-08-07T10:29:45.877Z,3.63
2022-08-07T10:33:03.093Z,3.55
2022-08-07T10:36:11.072Z,3.58
2022-08-07T10:38:49.940Z,4.05
2022-08-07T10:41:51.651Z,6.85
2022-08-07T10:44:33.882Z,6.40
2022-08-07T10:47:52.790Z,18.40
2022-08-07T10:50:26.405Z,8.07
2022-08-07T10:52:59.977Z,4.60
2022-08-07T10:55:53.838Z,5.75
2022-08-07T10:58:33.061Z,3.08
2022-08-07T11:01:51.963Z,2.72
2022-08-07T11:04:42.170Z,8.10
2022-08-07T11:07:59.423Z,3.65
2022-08-07T11:10:52.270Z,4.25
2022-08-07T11:14:43.877Z,45.13
2022-08-07T11:16:54.681Z,7.28
2022-08-07T11:19:37.228Z,5.88
2022-08-07T11:22:38.263Z,4.83
2022-08-07T11:25:19.768Z,2.60
2022-08-07T11:28:33.552Z,7.20
2022-08-07T11:31:17.742Z,9.82
2022-08-07T11:34:06.836Z,8.05
2022-08-07T11:36:46.365Z,14.27
2022-08-07T11:40:01.359Z,16.17
2022-08-07T11:42:43.875Z,2.92
2022-08-07T11:45:53.549Z,3.10
2022-08-07T11:49:28.627Z,7.10
2022-08-07T11:52:15.285Z,3.78
2022-08-07T11:54:57.741Z,3.38
2022-08-07T11:57:59.915Z,2.75
2022-08-07T12:00:35.867Z,3.40
2022-08-07T12:03:41.538Z,4.70
2022-08-07T12:06:37.638Z,2.80
2022-08-07T12:09:24.979Z,2.50
2022-08-07T12:12:09.277Z,3.05
2022-08-07T12:15:02.000Z,2.83
2022-08-07T12:17:59.386Z,3.35
2022-08-07T12:21:55.892Z,2.90
2022-08-07T12:24:40.302Z,3.28
2022-08-07T12:27:16.317Z,4.93
2022-08-07T12:29:54.958Z,3.15
2022-08-07T12:32:31.144Z,3.10
2022-08-07T12:35:02.531Z,4.38
2022-08-07T12:38:11.452Z,3.25
2022-08-07T12:40:47.540Z,3.30
2022-08-07T12:44:03.618Z,4.10
2022-08-07T12:46:09.757Z,2.53
2022-08-07T12:48:53.051Z,3.38
2022-08-07T12:51:33.233Z,3.78
2022-08-07T12:54:54.615Z,5.43
2022-08-07T12:57:29.869Z,4.18
2022-08-07T13:00:16.445Z,6.13
2022-08-07T13:03:06.750Z,5.03
2022-08-07T13:06:03.429Z,3.95
2022-08-07T13:09:12.669Z,4.35
2022-08-07T13:12:10.107Z,3.13
2022-08-07T13:14:50.966Z,4.15
2022-08-07T13:20:30.961Z,3.00
2022-08-07T13:24:00.766Z,2.85
2022-08-07T13:26:20.138Z,3.30
2022-08-07T13:29:18.592Z,3.47
2022-08-07T13:31:59.796Z,2.80
2022-08-07T13:34:38.406Z,3.58
2022-08-07T13:37:20.040Z,3.30
2022-08-07T13:40:36.607Z,3.08
2022-08-07T13:43:12.342Z,3.67
2022-08-07T13:46:21.062Z,3.83
2022-08-07T13:48:35.721Z,2.72
2022-08-07T13:51:28.505Z,2.75
2022-08-07T13:54:03.682Z,2.47
2022-08-07T13:56:36.294Z,2.42
2022-08-07T13:59:33.270Z,2.78
2022-08-07T14:02:10.316Z,2.47
2022-08-07T14:04:47.517Z,2.70
2022-08-07T14:07:21.250Z,2.67
2022-08-07T14:10:12.189Z,3.08
2022-08-07T14:12:53.935Z,2.25
2022-08-07T14:15:40.164Z,2.35
2022-08-07T14:18:28.551Z,3.10
2022-08-07T14:21:20.607Z,2.83
2022-08-07T14:24:08.740Z,2.72
2022-08-07T14:26:50.416Z,2.88
2022-08-07T14:30:08.227Z,2.95
2022-08-07T14:32:14.037Z,2.50
2022-08-07T14:34:47.500Z,2.40
2022-08-07T14:37:32.885Z,2.92
2022-08-07T14:40:16.724Z,2.42
2022-08-07T14:43:57.574Z,3.00
2022-08-07T14:46:01.156Z,2.40
2022-08-07T14:48:34.434Z,2.50
2022-08-07T14:51:16.109Z,2.60
2022-08-07T14:54:08.938Z,2.33
2022-08-07T14:56:34.219Z,2.47
2022-08-07T14:59:13.471Z,2.70
2022-08-07T15:01:58.372Z,2.58
2022-08-07T15:04:28.910Z,2.30
2022-08-07T15:06:58.430Z,2.42
2022-08-07T15:15:21.374Z,2.53
2022-08-07T15:17:59.140Z,2.67
2022-08-07T15:20:54.668Z,2.65
2022-08-07T15:25:04.082Z,2.80
2022-08-07T15:26:28.803Z,3.17
2022-08-07T15:30:06.580Z,2.80
2022-08-07T15:32:01.983Z,2.35
2022-08-07T15:35:08.257Z,2.45
2022-08-07T15:40:34.609Z,2.42
2022-08-07T15:43:53.804Z,2.72
2022-08-07T15:46:37.183Z,3.00
2022-08-07T15:49:14.454Z,2.58
2022-08-07T15:54:34.640Z,2.78
2022-08-07T15:57:40.012Z,3.00
2022-08-07T16:00:04.475Z,3.15
2022-08-07T16:02:46.775Z,3.00
2022-08-07T16:05:20.543Z,2.60
2022-08-07T16:08:30.848Z,3.00
2022-08-07T16:10:48.730Z,2.60
2022-08-07T16:13:39.572Z,2.50
2022-08-07T16:16:47.756Z,3.97
2022-08-07T16:19:42.624Z,2.75
2022-08-07T16:22:55.782Z,2.58
2022-08-07T16:25:54.491Z,3.30
2022-08-07T16:30:08.697Z,2.83
2022-08-07T16:32:03.785Z,3.35
2022-08-07T16:35:00.122Z,2.80
2022-08-07T16:38:06.024Z,27.25
2022-08-07T16:40:57.117Z,3.10
2022-08-07T16:44:05.759Z,3.40
2022-08-07T16:47:08.785Z,3.05
2022-08-07T16:50:27.885Z,4.88
2022-08-07T16:53:09.879Z,3.30
2022-08-07T16:56:08.904Z,3.28
2022-08-07T17:01:42.345Z,2.88
2022-08-07T17:04:57.605Z,4.28
2022-08-07T17:07:55.346Z,7.50
2022-08-07T17:10:33.150Z,3.40
2022-08-07T17:14:19.590Z,3.33
2022-08-07T17:16:56.021Z,3.38
2022-08-07T17:20:14.026Z,3.50
2022-08-07T17:23:11.417Z,3.05
2022-08-07T17:25:52.486Z,3.47
2022-08-07T17:28:31.508Z,3.63
2022-08-07T19:23:57.401Z,3.30
2022-08-07T19:26:23.468Z,3.35
2022-08-07T19:31:06.201Z,3.55
2022-08-07T19:32:18.681Z,3.40
2022-08-07T19:34:59.259Z,3.70
2022-08-07T19:37:55.653Z,3.78
2022-08-07T19:40:17.156Z,3.47
2022-08-07T19:43:49.161Z,3.00
2022-08-07T19:46:18.899Z,3.13
2022-08-07T19:49:00.265Z,4.35
2022-08-07T19:51:51.007Z,5.95
2022-08-07T19:54:31.939Z,3.60
2022-08-07T19:58:01.693Z,4.20
2022-08-07T20:00:08.771Z,9.98
2022-08-07T20:02:52.235Z,6.75
2022-08-07T20:05:27.805Z,5.55
2022-08-07T20:08:11.975Z,10.10
2022-08-07T20:10:55.044Z,5.55
2022-08-07T20:13:32.121Z,3.55
2022-08-07T20:16:03.498Z,3.60
2022-08-07T20:18:34.543Z,3.10
2022-08-07T20:21:14.461Z,3.20
2022-08-07T20:24:01.241Z,4.18
